Costa Atlantica — IBLQ — position and weather

sailwx.info

Track history (hours):
 
Tides and Currents Weather Stations Pressure Air Temp Water Temp Dewpoint Dewpoint Depression Visibility Wind Speed Wind Dir Waves Ship Positions

Costa Atlantica (Italy)

Last reported at 2019-Feb-21 12:16 UTC. Time now 2019-Feb-21 15:44 UTC.
Position N 16°07' E 108°12'.

Length 292 m; draft 8 m.

Type: Ship. MMSI: 247595017.

Date/timePositionNaut miles runAvg speedWind from/ knotsBaromVisibWave heightAir tempDewpointWater temp
2019-Feb-21 12:16N 16°07' E 108°12'0 0.2
2019-Feb-21 11:06N 16°07' E 108°13'0 0.0
2019-Feb-21 10:12N 16°07' E 108°13'0 0.0
2019-Feb-21 10:00N 16°07' E 108°13'0 0.0
2019-Feb-21 09:30N 16°07' E 108°13'0 0.0
2019-Feb-21 08:48N 16°07' E 108°13'0 0.0
2019-Feb-21 08:18N 16°07' E 108°13'0 0.0
2019-Feb-21 07:54N 16°07' E 108°13'0 0.0
2019-Feb-21 07:18N 16°07' E 108°13'0 0.0
2019-Feb-21 06:54N 16°07' E 108°13'0 0.0
2019-Feb-21 06:30N 16°07' E 108°13'0 0.0
2019-Feb-21 06:00N 16°07' E 108°13'0 0.0
2019-Feb-21 05:30N 16°07' E 108°13'0 0.0
2019-Feb-21 04:54N 16°07' E 108°13'0 0.0
2019-Feb-21 04:24N 16°07' E 108°13'0 0.0
2019-Feb-21 04:00N 16°07' E 108°13'0 0.0
2019-Feb-21 03:30N 16°07' E 108°13'0 0.0
2019-Feb-21 02:54N 16°07' E 108°13'0 0.0
2019-Feb-21 02:30N 16°07' E 108°13'0 0.0
2019-Feb-21 01:48N 16°07' E 108°13'0 0.0
2019-Feb-21 01:18N 16°07' E 108°13'0 0.0
2019-Feb-21 01:00N 16°07' E 108°13'0 0.0
2019-Feb-21 00:28N 16°07' E 108°13'1 1.1
2019-Feb-20 23:59N 16°08' E 108°12'48714.3
2019-Feb-19 13:57N 22°17' E 113°48'6 0.6
2019-Feb-19 03:28N 22°23' E 113°50'1813.9
2019-Feb-19 02:09N 22°05' E 113°51'616.5
2019-Feb-19 01:47N 21°59' E 113°52'28616.4
2019-Feb-18 08:18N 24°10' E 118°28'3 8.3
2019-Feb-18 07:59N 24°08' E 118°26'613.2
2019-Feb-18 07:29N 24°05' E 118°32'1619.1
2019-Feb-18 06:38N 24°03' E 118°50'  
2019-Feb-14 08:31N 22°17' E 113°48'014.4
2019-Feb-14 08:30N 22°17' E 113°48'6 0.7
2019-Feb-13 23:10N 22°23' E 113°50'315.9
2019-Feb-13 23:00N 22°21' E 113°49'1712.4
2019-Feb-13 21:39N 22°04' E 113°51'516.3
2019-Feb-13 21:21N 21°59' E 113°51'47614.3
2019-Feb-12 12:03N 16°07' E 108°13'0 0.5
2019-Feb-12 11:59N 16°07' E 108°13'0 0.1
2019-Feb-12 11:30N 16°07' E 108°13'0 0.0
2019-Feb-12 10:59N 16°07' E 108°13'0 0.0
2019-Feb-12 10:30N 16°07' E 108°13'0 0.0
2019-Feb-12 09:59N 16°07' E 108°13'0 0.0
2019-Feb-12 09:30N 16°07' E 108°13'0 0.0
2019-Feb-12 09:00N 16°07' E 108°13'0 0.0
2019-Feb-12 08:29N 16°07' E 108°13'0 0.0
2019-Feb-12 07:56N 16°07' E 108°13'0 0.0
2019-Feb-12 07:30N 16°07' E 108°13'0 0.0
2019-Feb-12 07:00N 16°07' E 108°13'0 0.0
2019-Feb-12 06:28N 16°07' E 108°13'0 0.0
2019-Feb-12 05:58N 16°07' E 108°13'0 0.0
2019-Feb-12 05:30N 16°07' E 108°13'0 0.0
2019-Feb-12 04:59N 16°07' E 108°13'0 0.0
2019-Feb-12 04:19N 16°07' E 108°13'0 0.0
2019-Feb-12 03:59N 16°07' E 108°13'0 0.0
2019-Feb-12 03:29N 16°07' E 108°13'0 0.0
2019-Feb-12 02:49N 16°07' E 108°13'0 0.0
2019-Feb-12 02:28N 16°07' E 108°13'0 0.0
2019-Feb-12 01:58N 16°07' E 108°13'0 0.0
2019-Feb-12 01:28N 16°07' E 108°13'0 0.0
2019-Feb-12 00:58N 16°07' E 108°13'0 0.3
2019-Feb-12 00:12N 16°07' E 108°12'0 1.4
2019-Feb-11 23:57N 16°08' E 108°12'  
Track history (hours):
 
Tides and Currents Weather Stations Pressure Air Temp Water Temp Dewpoint Dewpoint Depression Visibility Wind Speed Wind Dir Waves Ship Positions

Costa Atlantica (Italy)

Last reported at 2019-Feb-21 12:16 UTC. Time now 2019-Feb-21 15:44 UTC.
Position N 16°07' E 108°12'.

Length 292 m; draft 8 m.

Type: Ship. MMSI: 247595017.

Date/timePositionNaut miles runAvg speedWind from/ knotsBaromVisibWave heightAir tempDewpointWater temp
2019-Feb-21 12:16N 16°07' E 108°12'0 0.2
2019-Feb-21 11:06N 16°07' E 108°13'0 0.0
2019-Feb-21 10:12N 16°07' E 108°13'0 0.0
2019-Feb-21 10:00N 16°07' E 108°13'0 0.0
2019-Feb-21 09:30N 16°07' E 108°13'0 0.0
2019-Feb-21 08:48N 16°07' E 108°13'0 0.0
2019-Feb-21 08:18N 16°07' E 108°13'0 0.0
2019-Feb-21 07:54N 16°07' E 108°13'0 0.0
2019-Feb-21 07:18N 16°07' E 108°13'0 0.0
2019-Feb-21 06:54N 16°07' E 108°13'0 0.0
2019-Feb-21 06:30N 16°07' E 108°13'0 0.0
2019-Feb-21 06:00N 16°07' E 108°13'0 0.0
2019-Feb-21 05:30N 16°07' E 108°13'0 0.0
2019-Feb-21 04:54N 16°07' E 108°13'0 0.0
2019-Feb-21 04:24N 16°07' E 108°13'0 0.0
2019-Feb-21 04:00N 16°07' E 108°13'0 0.0
2019-Feb-21 03:30N 16°07' E 108°13'0 0.0
2019-Feb-21 02:54N 16°07' E 108°13'0 0.0
2019-Feb-21 02:30N 16°07' E 108°13'0 0.0
2019-Feb-21 01:48N 16°07' E 108°13'0 0.0
2019-Feb-21 01:18N 16°07' E 108°13'0 0.0
2019-Feb-21 01:00N 16°07' E 108°13'0 0.0
2019-Feb-21 00:28N 16°07' E 108°13'1 1.1
2019-Feb-20 23:59N 16°08' E 108°12'48714.3
2019-Feb-19 13:57N 22°17' E 113°48'6 0.6
2019-Feb-19 03:28N 22°23' E 113°50'1813.9
2019-Feb-19 02:09N 22°05' E 113°51'616.5
2019-Feb-19 01:47N 21°59' E 113°52'28616.4
2019-Feb-18 08:18N 24°10' E 118°28'3 8.3
2019-Feb-18 07:59N 24°08' E 118°26'613.2
2019-Feb-18 07:29N 24°05' E 118°32'1619.1
2019-Feb-18 06:38N 24°03' E 118°50'  
2019-Feb-14 08:31N 22°17' E 113°48'014.4
2019-Feb-14 08:30N 22°17' E 113°48'6 0.7
2019-Feb-13 23:10N 22°23' E 113°50'315.9
2019-Feb-13 23:00N 22°21' E 113°49'1712.4
2019-Feb-13 21:39N 22°04' E 113°51'516.3
2019-Feb-13 21:21N 21°59' E 113°51'47614.3
2019-Feb-12 12:03N 16°07' E 108°13'0 0.5
2019-Feb-12 11:59N 16°07' E 108°13'0 0.1
2019-Feb-12 11:30N 16°07' E 108°13'0 0.0
2019-Feb-12 10:59N 16°07' E 108°13'0 0.0
2019-Feb-12 10:30N 16°07' E 108°13'0 0.0
2019-Feb-12 09:59N 16°07' E 108°13'0 0.0
2019-Feb-12 09:30N 16°07' E 108°13'0 0.0
2019-Feb-12 09:00N 16°07' E 108°13'0 0.0
2019-Feb-12 08:29N 16°07' E 108°13'0 0.0
2019-Feb-12 07:56N 16°07' E 108°13'0 0.0
2019-Feb-12 07:30N 16°07' E 108°13'0 0.0
2019-Feb-12 07:00N 16°07' E 108°13'0 0.0
2019-Feb-12 06:28N 16°07' E 108°13'0 0.0
2019-Feb-12 05:58N 16°07' E 108°13'0 0.0
2019-Feb-12 05:30N 16°07' E 108°13'0 0.0
2019-Feb-12 04:59N 16°07' E 108°13'0 0.0
2019-Feb-12 04:19N 16°07' E 108°13'0 0.0
2019-Feb-12 03:59N 16°07' E 108°13'0 0.0
2019-Feb-12 03:29N 16°07' E 108°13'0 0.0
2019-Feb-12 02:49N 16°07' E 108°13'0 0.0
2019-Feb-12 02:28N 16°07' E 108°13'0 0.0
2019-Feb-12 01:58N 16°07' E 108°13'0 0.0
2019-Feb-12 01:28N 16°07' E 108°13'0 0.0
2019-Feb-12 00:58N 16°07' E 108°13'0 0.3
2019-Feb-12 00:12N 16°07' E 108°12'0 1.4
2019-Feb-11 23:57N 16°08' E 108°12'  

Dump ship's entire track history